Osman Prince — D6A2040 — position and weather

sailwx.info

Track history (hours):
 
Tides and Currents Weather Stations Pressure Air Temp Water Temp Dewpoint Dewpoint Depression Visibility Wind Speed Wind Dir Waves Ship Positions

Osman Prince

Last reported at 2017-Nov-12 01:58 UTC. Time now 2017-Nov-24 09:25 UTC.
Position N 44°12' E 030°17'.
Warning: this ship's position is 12 days out of date.

Length 151 m; draft 9 m.

MMSI: 620040000.

Date/timePositionNaut miles runAvg speedWind from/ knotsBaromVisibWave heightAir tempDewpointWater temp
2017-Nov-12 01:58N 44°12' E 030°17'810.2
2017-Nov-12 01:13N 44°19' E 030°20'122 9.5
2017-Nov-11 12:16N 46°19' E 030°55'3 9.6
2017-Nov-11 11:57N 46°22' E 030°55'4 9.6
2017-Nov-11 11:30N 46°27' E 030°55'5 9.6
2017-Nov-11 11:00N 46°31' E 030°55'2110.1
2017-Nov-11 08:53N 46°35' E 031°26'4 8.4
2017-Nov-11 08:22N 46°35' E 031°32'4 9.4
2017-Nov-11 07:57N 46°35' E 031°38'5 9.5
2017-Nov-11 07:28N 46°36' E 031°44'4 9.2
2017-Nov-11 07:00N 46°37' E 031°50'4 8.0
2017-Nov-11 06:30N 46°39' E 031°55'4 7.5
2017-Nov-11 06:01N 46°42' E 031°56'4 8.2
2017-Nov-11 05:30N 46°46' E 031°53'4 8.7
2017-Nov-11 05:00N 46°50' E 031°56'1 1.6
2017-Nov-11 04:30N 46°50' E 031°57'0 0.0
2017-Nov-11 04:00N 46°50' E 031°57'0 0.0
2017-Nov-11 03:28N 46°50' E 031°57'0 0.0
2017-Nov-11 02:58N 46°50' E 031°57'0 0.0
2017-Nov-11 02:28N 46°50' E 031°57'0 0.0
2017-Nov-11 01:58N 46°50' E 031°57'0 0.0
2017-Nov-11 01:28N 46°50' E 031°57'0 0.0
2017-Nov-11 00:58N 46°50' E 031°57'0 0.0
2017-Nov-11 00:28N 46°50' E 031°57'0 0.0
2017-Nov-10 23:58N 46°50' E 031°57'0 0.0
2017-Nov-10 23:28N 46°50' E 031°57'0 0.0
2017-Nov-10 22:58N 46°50' E 031°57'0 0.0
2017-Nov-10 22:28N 46°50' E 031°57'0 0.0
2017-Nov-10 21:58N 46°50' E 031°57'0 0.0
2017-Nov-10 21:28N 46°50' E 031°57'0 0.0
2017-Nov-10 20:58N 46°50' E 031°57'0 0.0
2017-Nov-10 20:28N 46°50' E 031°57'0 0.0
2017-Nov-10 19:58N 46°50' E 031°57'0 0.0
2017-Nov-10 19:28N 46°50' E 031°57'0 0.0
2017-Nov-10 18:58N 46°50' E 031°57'0 0.0
2017-Nov-10 18:28N 46°50' E 031°57'0 0.0
2017-Nov-10 17:58N 46°50' E 031°57'0 0.0
2017-Nov-10 17:28N 46°50' E 031°57'0 0.0
2017-Nov-10 16:58N 46°50' E 031°57'0 0.0
2017-Nov-10 16:28N 46°50' E 031°57'0 0.0
2017-Nov-10 15:58N 46°50' E 031°57'0 0.0
2017-Nov-10 15:28N 46°50' E 031°57'0 0.0
2017-Nov-10 14:58N 46°50' E 031°57'0 0.0
2017-Nov-10 14:31N 46°50' E 031°57'0 0.0
2017-Nov-10 14:01N 46°50' E 031°57'0 0.0
2017-Nov-10 13:31N 46°50' E 031°57'0 0.0
2017-Nov-10 13:00N 46°50' E 031°57'0 0.0
2017-Nov-10 12:30N 46°50' E 031°57'0 0.0
2017-Nov-10 12:00N 46°50' E 031°57'0 0.0
2017-Nov-10 11:30N 46°50' E 031°57'0 0.0
2017-Nov-10 11:00N 46°50' E 031°57'0 0.0
2017-Nov-10 10:24N 46°50' E 031°57'0 0.0
2017-Nov-10 10:00N 46°50' E 031°57'0 0.0
2017-Nov-10 09:30N 46°50' E 031°57'0 0.0
2017-Nov-10 09:00N 46°50' E 031°57'0 0.0
2017-Nov-10 08:30N 46°50' E 031°57'0 0.0
2017-Nov-10 08:00N 46°50' E 031°57'0 0.0
2017-Nov-10 07:30N 46°50' E 031°57'0 0.0
2017-Nov-10 07:00N 46°50' E 031°57'0 0.0
2017-Nov-10 06:30N 46°50' E 031°57'0 0.0
2017-Nov-10 06:00N 46°50' E 031°57'0 0.0
2017-Nov-10 05:30N 46°50' E 031°57'0 0.0
2017-Nov-10 05:00N 46°50' E 031°57'0 0.0
2017-Nov-10 04:30N 46°50' E 031°57'0 0.0
2017-Nov-10 04:00N 46°50' E 031°57'0 0.0
2017-Nov-10 03:30N 46°50' E 031°57'0 0.0
2017-Nov-10 03:00N 46°50' E 031°57'0 0.0
2017-Nov-10 02:30N 46°50' E 031°57'0 0.0
2017-Nov-10 02:00N 46°50' E 031°57'0 0.0
2017-Nov-10 01:30N 46°50' E 031°57'0 0.0
2017-Nov-10 01:00N 46°50' E 031°57'0 0.0
2017-Nov-10 00:30N 46°50' E 031°57'0 0.0
2017-Nov-10 00:00N 46°50' E 031°57'0 0.0
2017-Nov-09 23:30N 46°50' E 031°57'0 0.0
2017-Nov-09 23:00N 46°50' E 031°57'0 0.0
2017-Nov-09 22:30N 46°50' E 031°57'0 0.0
2017-Nov-09 22:00N 46°50' E 031°57'0 0.0
2017-Nov-09 21:30N 46°50' E 031°57'0 0.0
2017-Nov-09 21:00N 46°50' E 031°57'0 0.0
2017-Nov-09 20:30N 46°50' E 031°57'0 0.0
2017-Nov-09 19:57N 46°50' E 031°57'0 0.0
2017-Nov-09 19:27N 46°50' E 031°57'0 0.0
2017-Nov-09 18:57N 46°50' E 031°57'0 0.0
2017-Nov-09 18:27N 46°50' E 031°57'0 0.0
2017-Nov-09 17:57N 46°50' E 031°57'0 0.0
2017-Nov-09 17:30N 46°50' E 031°57'0 0.0
2017-Nov-09 17:00N 46°50' E 031°57'0 0.0
2017-Nov-09 16:30N 46°50' E 031°57'0 0.0
2017-Nov-09 16:00N 46°50' E 031°57'0 0.0
2017-Nov-09 15:30N 46°50' E 031°57'0 0.0
2017-Nov-09 15:00N 46°50' E 031°57'0 0.0
2017-Nov-09 14:30N 46°50' E 031°57'0 0.0
2017-Nov-09 13:57N 46°50' E 031°57'0 0.0
2017-Nov-09 13:30N 46°50' E 031°57'0 0.0
2017-Nov-09 13:00N 46°50' E 031°57'0 0.0
2017-Nov-09 12:30N 46°50' E 031°57'0 0.0
2017-Nov-09 12:00N 46°50' E 031°57'0 0.0
2017-Nov-09 11:30N 46°50' E 031°57'0 0.0
2017-Nov-09 11:00N 46°50' E 031°57'0 0.0
2017-Nov-09 10:30N 46°50' E 031°57'0 0.0
2017-Nov-09 10:00N 46°50' E 031°57'0 0.0
2017-Nov-09 09:30N 46°50' E 031°57'0 0.0
2017-Nov-09 09:00N 46°50' E 031°57'0 0.0
2017-Nov-09 08:30N 46°50' E 031°57'0 0.0
2017-Nov-09 08:00N 46°50' E 031°57'0 0.0
2017-Nov-09 07:30N 46°50' E 031°57'0 0.0
2017-Nov-09 07:00N 46°50' E 031°57'0 0.0
2017-Nov-09 06:30N 46°50' E 031°57'0 0.0
2017-Nov-09 06:00N 46°50' E 031°57'0 0.0
2017-Nov-09 05:30N 46°50' E 031°57'0 0.0
2017-Nov-09 05:00N 46°50' E 031°57'0 0.0
2017-Nov-09 04:30N 46°50' E 031°57'0 0.0
2017-Nov-09 04:00N 46°50' E 031°57'0 0.0
2017-Nov-09 03:30N 46°50' E 031°57'0 0.0
2017-Nov-09 03:00N 46°50' E 031°57'0 0.0
2017-Nov-09 02:30N 46°50' E 031°57'0 0.0
2017-Nov-09 02:00N 46°50' E 031°57'0 0.0
2017-Nov-09 01:30N 46°50' E 031°57'0 0.0
2017-Nov-09 00:59N 46°50' E 031°57'0 0.0
2017-Nov-09 00:29N 46°50' E 031°57'0 0.0
2017-Nov-08 23:59N 46°50' E 031°57'0 0.0
2017-Nov-08 23:29N 46°50' E 031°57'0 0.0
2017-Nov-08 22:59N 46°50' E 031°57'0 0.0
2017-Nov-08 22:29N 46°50' E 031°57'0 0.0
2017-Nov-08 21:59N 46°50' E 031°57'0 0.0
2017-Nov-08 21:29N 46°50' E 031°57'0 0.0
2017-Nov-08 20:59N 46°50' E 031°57'0 0.0
2017-Nov-08 20:29N 46°50' E 031°57'0 0.0
2017-Nov-08 19:59N 46°50' E 031°57'0 0.0
2017-Nov-08 19:29N 46°50' E 031°57'0 0.0
2017-Nov-08 18:59N 46°50' E 031°57'0 0.0
2017-Nov-08 18:29N 46°50' E 031°57'0 0.0
2017-Nov-08 17:59N 46°50' E 031°57'0 0.0
2017-Nov-08 17:29N 46°50' E 031°57'0 0.0
2017-Nov-08 16:59N 46°50' E 031°57'0 0.0
2017-Nov-08 16:29N 46°50' E 031°57'0 0.0
2017-Nov-08 15:59N 46°50' E 031°57'0 0.0
2017-Nov-08 15:29N 46°50' E 031°57'0 0.0
2017-Nov-08 14:59N 46°50' E 031°57'0 0.0
2017-Nov-08 14:29N 46°50' E 031°57'0 0.0
2017-Nov-08 13:59N 46°50' E 031°57'0 0.0
2017-Nov-08 13:29N 46°50' E 031°57'0 0.0
2017-Nov-08 12:59N 46°50' E 031°57'0 0.0
2017-Nov-08 12:29N 46°50' E 031°57'0 0.0
2017-Nov-08 11:59N 46°50' E 031°57'0 0.0
2017-Nov-08 11:29N 46°50' E 031°57'0 0.0
2017-Nov-08 10:59N 46°50' E 031°57'0 0.0
2017-Nov-08 10:29N 46°50' E 031°57'0 0.0
2017-Nov-08 09:59N 46°50' E 031°57'0 0.0
2017-Nov-08 09:29N 46°50' E 031°57'0 0.0
2017-Nov-08 08:56N 46°50' E 031°57'0 0.0
2017-Nov-08 08:29N 46°50' E 031°57'0 0.0
2017-Nov-08 07:59N 46°50' E 031°57'0 0.0
2017-Nov-08 07:29N 46°50' E 031°57'0 0.0
2017-Nov-08 06:59N 46°50' E 031°57'0 0.0
2017-Nov-08 06:29N 46°50' E 031°57'0 0.0
2017-Nov-08 05:59N 46°50' E 031°57'0 0.0
2017-Nov-08 05:29N 46°50' E 031°57'0 0.0
2017-Nov-08 04:59N 46°50' E 031°57'0 0.0
2017-Nov-08 04:29N 46°50' E 031°57'0 0.0
2017-Nov-08 03:59N 46°50' E 031°57'0 0.0
2017-Nov-08 03:29N 46°50' E 031°57'0 0.0
2017-Nov-08 02:59N 46°50' E 031°57'0 0.0
2017-Nov-08 02:29N 46°50' E 031°57'0 0.0
2017-Nov-08 01:59N 46°50' E 031°57'0 0.0
2017-Nov-08 01:29N 46°50' E 031°57'0 0.0
2017-Nov-08 00:59N 46°50' E 031°57'0 0.0
2017-Nov-08 00:29N 46°50' E 031°57'0 0.0
2017-Nov-07 23:59N 46°50' E 031°57'0 0.0
2017-Nov-07 23:29N 46°50' E 031°57'0 0.0
2017-Nov-07 22:59N 46°50' E 031°57'0 0.0
2017-Nov-07 22:29N 46°50' E 031°57'0 0.0
2017-Nov-07 21:59N 46°50' E 031°57'0 0.0
2017-Nov-07 21:29N 46°50' E 031°57'0 0.0
2017-Nov-07 20:59N 46°50' E 031°57'0 0.0
2017-Nov-07 20:29N 46°50' E 031°57'0 0.0
2017-Nov-07 19:59N 46°50' E 031°57'0 0.0
2017-Nov-07 19:29N 46°50' E 031°57'0 0.0
2017-Nov-07 18:59N 46°50' E 031°57'0 0.0
2017-Nov-07 18:29N 46°50' E 031°57'0 0.0
2017-Nov-07 17:59N 46°50' E 031°57'0 0.0
2017-Nov-07 17:29N 46°50' E 031°57'0 0.0
2017-Nov-07 16:56N 46°50' E 031°57'0 0.0
2017-Nov-07 16:29N 46°50' E 031°57'0 0.0
2017-Nov-07 15:59N 46°50' E 031°57'0 0.0
2017-Nov-07 15:23N 46°50' E 031°57'0 0.0
2017-Nov-07 14:59N 46°50' E 031°57'0 0.0
2017-Nov-07 14:29N 46°50' E 031°57'0 0.0
2017-Nov-07 13:59N 46°50' E 031°57'0 0.0
2017-Nov-07 13:29N 46°50' E 031°57'0 0.0
2017-Nov-07 12:59N 46°50' E 031°57'0 0.0
2017-Nov-07 12:28N 46°50' E 031°57'0 0.0
2017-Nov-07 11:58N 46°50' E 031°57'0 0.0
2017-Nov-07 11:22N 46°50' E 031°57'0 0.0
2017-Nov-07 10:58N 46°50' E 031°57'0 0.0
2017-Nov-07 10:28N 46°50' E 031°57'0 0.0
2017-Nov-07 09:58N 46°50' E 031°57'0 0.0
2017-Nov-07 09:28N 46°50' E 031°57'0 0.0
2017-Nov-07 08:58N 46°50' E 031°57'0 0.0
2017-Nov-07 08:28N 46°50' E 031°57'0 0.0
2017-Nov-07 07:58N 46°50' E 031°57'0 0.0
2017-Nov-07 07:28N 46°50' E 031°57'0 0.0
2017-Nov-07 06:58N 46°50' E 031°57'0 0.0
2017-Nov-07 06:28N 46°50' E 031°57'0 0.0
2017-Nov-07 05:58N 46°50' E 031°57'0 0.0
2017-Nov-07 05:28N 46°50' E 031°57'0 0.0
2017-Nov-07 04:58N 46°50' E 031°57'0 0.0
2017-Nov-07 04:28N 46°50' E 031°57'0 0.0
2017-Nov-07 03:58N 46°50' E 031°57'0 0.0
2017-Nov-07 03:28N 46°50' E 031°57'0 0.0
2017-Nov-07 02:58N 46°50' E 031°57'0 0.0
2017-Nov-07 02:28N 46°50' E 031°57'0 0.0
2017-Nov-07 01:58N 46°50' E 031°57'0 0.0
2017-Nov-07 01:28N 46°50' E 031°57'0 0.0
2017-Nov-07 00:58N 46°50' E 031°57'0 0.0
2017-Nov-07 00:28N 46°50' E 031°57'0 0.0
2017-Nov-06 23:58N 46°50' E 031°57'0 0.0
2017-Nov-06 23:28N 46°50' E 031°57'0 0.0
2017-Nov-06 22:58N 46°50' E 031°57'0 0.0
2017-Nov-06 22:28N 46°50' E 031°57'0 0.0
2017-Nov-06 21:58N 46°50' E 031°57'0 0.0
2017-Nov-06 21:28N 46°50' E 031°57'0 0.0
2017-Nov-06 20:58N 46°50' E 031°57'0 0.0
2017-Nov-06 20:28N 46°50' E 031°57'0 0.0
2017-Nov-06 02:28N 46°50' E 031°57'0 0.0
2017-Nov-06 02:01N 46°50' E 031°57'0 0.0
2017-Nov-06 01:31N 46°50' E 031°57'0 0.0
2017-Nov-06 01:01N 46°50' E 031°57'0 0.0
2017-Nov-06 00:30N 46°50' E 031°57'0 0.0
2017-Nov-06 00:00N 46°50' E 031°57'0 0.0
2017-Nov-05 23:30N 46°50' E 031°57'0 0.0
2017-Nov-05 23:00N 46°50' E 031°57'0 0.3
2017-Nov-05 22:30N 46°50' E 031°57'1 2.5
2017-Nov-05 22:00N 46°50' E 031°55'0 0.0
2017-Nov-05 21:30N 46°50' E 031°55'0 0.0
2017-Nov-05 21:00N 46°50' E 031°55'0 0.0
2017-Nov-05 20:30N 46°50' E 031°55'0 0.1
2017-Nov-05 20:00N 46°50' E 031°55'3 5.3
2017-Nov-05 19:30N 46°48' E 031°53'5 9.6
2017-Nov-05 19:00N 46°43' E 031°56'510.5
2017-Nov-05 18:30N 46°38' E 031°54'510.5
2017-Nov-05 18:00N 46°36' E 031°48'35 6.7
2017-Nov-05 12:49N 46°32' E 030°57'3 9.7
2017-Nov-05 12:29N 46°29' E 030°57'510.7
2017-Nov-05 11:59N 46°23' E 030°57'13310.2
2017-Nov-04 23:00N 44°24' E 029°34'611.1
2017-Nov-04 22:30N 44°21' E 029°27'511.2
2017-Nov-04 22:01N 44°19' E 029°20'611.2
2017-Nov-04 21:31N 44°17' E 029°13'611.2
2017-Nov-04 21:01N 44°15' E 029°06'611.1
2017-Nov-04 20:31N 44°12' E 028°59'611.1
2017-Nov-04 20:01N 44°10' E 028°52'5 9.4
2017-Nov-04 19:31N 44°08' E 028°46'0 0.3
2017-Nov-04 19:00N 44°08' E 028°46'0 0.1
2017-Nov-04 18:30N 44°08' E 028°46'0 0.0
2017-Nov-04 18:00N 44°08' E 028°46'0 0.9
2017-Nov-04 17:30N 44°07' E 028°46'3 5.2
2017-Nov-04 17:00N 44°05' E 028°43'2 4.4
2017-Nov-04 16:30N 44°06' E 028°40'0 0.4
2017-Nov-04 16:00N 44°06' E 028°40'0 0.0
2017-Nov-04 15:30N 44°06' E 028°40'0 0.0
2017-Nov-04 15:00N 44°06' E 028°40'0 0.0
2017-Nov-04 14:30N 44°06' E 028°40'0 0.0
2017-Nov-04 14:00N 44°06' E 028°40'0 0.0
2017-Nov-04 13:30N 44°06' E 028°40'0 0.0
2017-Nov-04 12:57N 44°06' E 028°40'0 0.0
2017-Nov-04 12:30N 44°06' E 028°40'0 0.0
2017-Nov-04 12:00N 44°06' E 028°40'0 0.0
2017-Nov-04 11:30N 44°06' E 028°40'0 0.0
2017-Nov-04 11:00N 44°06' E 028°40'0 0.0
2017-Nov-04 10:30N 44°06' E 028°40'0 0.0
2017-Nov-04 10:00N 44°06' E 028°40'0 0.0
2017-Nov-04 09:30N 44°06' E 028°40'0 0.0
2017-Nov-04 09:00N 44°06' E 028°40'0 0.0
2017-Nov-04 08:30N 44°06' E 028°40'0 0.0
2017-Nov-04 08:00N 44°06' E 028°40'0 0.0
2017-Nov-04 07:30N 44°06' E 028°40'0 0.0
2017-Nov-04 07:00N 44°06' E 028°40'0 0.0
2017-Nov-04 06:30N 44°06' E 028°40'0 0.0
2017-Nov-04 06:00N 44°06' E 028°40'0 0.0
2017-Nov-04 05:30N 44°06' E 028°40'0 0.0
2017-Nov-04 05:00N 44°06' E 028°40'0 0.0
2017-Nov-04 04:30N 44°06' E 028°40'0 0.0
2017-Nov-04 04:00N 44°06' E 028°40'0 0.0
2017-Nov-04 03:30N 44°06' E 028°40'0 0.0
2017-Nov-04 03:00N 44°06' E 028°40'0 0.0
2017-Nov-04 02:30N 44°06' E 028°40'0 0.0
2017-Nov-04 02:00N 44°06' E 028°40'0 0.0
2017-Nov-04 01:30N 44°06' E 028°40'0 0.0
2017-Nov-04 01:00N 44°06' E 028°40'0 0.0
2017-Nov-04 00:30N 44°06' E 028°40'0 0.0
2017-Nov-04 00:00N 44°06' E 028°40'0 0.0
2017-Nov-03 23:30N 44°06' E 028°40'0 0.0
2017-Nov-03 23:00N 44°06' E 028°40'0 0.0
2017-Nov-03 22:30N 44°06' E 028°40'0 0.0
2017-Nov-03 22:00N 44°06' E 028°40'0 0.0
2017-Nov-03 21:30N 44°06' E 028°40'0 0.0
2017-Nov-03 21:00N 44°06' E 028°40'0 0.0
2017-Nov-03 20:30N 44°06' E 028°40'0 0.0
2017-Nov-03 20:00N 44°06' E 028°40'0 0.0
2017-Nov-03 19:30N 44°06' E 028°40'0 0.0
2017-Nov-03 19:00N 44°06' E 028°40'0 0.0
2017-Nov-03 18:30N 44°06' E 028°40'0 0.0
2017-Nov-03 18:00N 44°06' E 028°40'0 0.0
2017-Nov-03 17:30N 44°06' E 028°40'0 0.0
2017-Nov-03 17:00N 44°06' E 028°40'0 0.0
2017-Nov-03 16:30N 44°06' E 028°40'0 0.0
2017-Nov-03 16:00N 44°06' E 028°40'0 0.0
2017-Nov-03 15:30N 44°06' E 028°40'0 0.0
2017-Nov-03 15:00N 44°06' E 028°40'0 0.0
2017-Nov-03 14:30N 44°06' E 028°40'0 0.0
2017-Nov-03 14:00N 44°06' E 028°40'0 0.0
2017-Nov-03 13:29N 44°06' E 028°40'0 0.0
2017-Nov-03 12:59N 44°06' E 028°40'0 0.0
2017-Nov-03 12:29N 44°06' E 028°40'0 0.0
2017-Nov-03 11:59N 44°06' E 028°40'0 0.0
2017-Nov-03 11:29N 44°06' E 028°40'0 0.0
2017-Nov-03 10:59N 44°06' E 028°40'0 0.0
2017-Nov-03 10:29N 44°06' E 028°40'0 0.0
2017-Nov-03 09:59N 44°06' E 028°40'0 0.0
2017-Nov-03 09:29N 44°06' E 028°40'0 0.0
2017-Nov-03 08:59N 44°06' E 028°40'0 0.0
2017-Nov-03 08:29N 44°06' E 028°40'0 0.0
2017-Nov-03 07:53N 44°06' E 028°40'0 0.0
2017-Nov-03 07:29N 44°06' E 028°40'0 0.0
2017-Nov-03 06:59N 44°06' E 028°40'0 0.0
2017-Nov-03 06:29N 44°06' E 028°40'0 0.0
2017-Nov-03 05:59N 44°06' E 028°40'0 0.0
2017-Nov-03 05:29N 44°06' E 028°40'0 0.0
2017-Nov-03 04:59N 44°06' E 028°40'0 0.0
2017-Nov-03 04:29N 44°06' E 028°40'0 0.0
2017-Nov-03 03:56N 44°06' E 028°40'0 0.0
2017-Nov-03 03:29N 44°06' E 028°40'0 0.0
2017-Nov-03 02:59N 44°06' E 028°40'0 0.0
2017-Nov-03 02:29N 44°06' E 028°40'0 0.0
2017-Nov-03 01:59N 44°06' E 028°40'0 0.0
2017-Nov-03 01:29N 44°06' E 028°40'0 0.0
2017-Nov-03 00:59N 44°06' E 028°40'0 0.0
2017-Nov-03 00:26N 44°06' E 028°40'0 0.0
2017-Nov-02 23:59N 44°06' E 028°40'0 0.0
2017-Nov-02 23:29N 44°06' E 028°40'0 0.0
2017-Nov-02 22:59N 44°06' E 028°40'0 0.0
2017-Nov-02 22:29N 44°06' E 028°40'0 0.0
2017-Nov-02 21:59N 44°06' E 028°40'0 0.0
2017-Nov-02 21:29N 44°06' E 028°40'0 0.0
2017-Nov-02 20:59N 44°06' E 028°40'0 0.0
2017-Nov-02 20:29N 44°06' E 028°40'0 0.0
2017-Nov-02 19:59N 44°06' E 028°40'0 0.0
2017-Nov-02 19:29N 44°06' E 028°40'0 0.0
2017-Nov-02 18:59N 44°06' E 028°40'0 0.0
2017-Nov-02 18:29N 44°06' E 028°40'0 0.0
2017-Nov-02 17:59N 44°06' E 028°40'0 0.0
2017-Nov-02 17:29N 44°06' E 028°40'0 0.0
2017-Nov-02 16:59N 44°06' E 028°40'0 0.0
2017-Nov-02 16:29N 44°06' E 028°40'0 0.0
2017-Nov-02 15:59N 44°06' E 028°40'0 0.0
2017-Nov-02 15:29N 44°06' E 028°40'0 0.0
2017-Nov-02 14:59N 44°06' E 028°40'0 0.0
2017-Nov-02 14:29N 44°06' E 028°40'0 0.0
2017-Nov-02 13:59N 44°06' E 028°40'0 0.0
2017-Nov-02 13:29N 44°06' E 028°40'0 0.0
2017-Nov-02 12:59N 44°06' E 028°40'0 0.0
2017-Nov-02 12:29N 44°06' E 028°40'0 0.0
2017-Nov-02 11:59N 44°06' E 028°40'0 0.0
2017-Nov-02 11:29N 44°06' E 028°40'0 0.0
2017-Nov-02 10:59N 44°06' E 028°40'0 0.0
2017-Nov-02 10:29N 44°06' E 028°40'0 0.1
2017-Nov-02 09:59N 44°06' E 028°40'0 0.0
2017-Nov-02 09:29N 44°06' E 028°40'0 0.0
2017-Nov-02 08:59N 44°06' E 028°40'0 0.0
2017-Nov-02 08:29N 44°06' E 028°40'0 0.0
2017-Nov-02 07:59N 44°06' E 028°40'0 0.0
2017-Nov-02 07:29N 44°06' E 028°40'0 0.0
2017-Nov-02 06:59N 44°06' E 028°40'0 0.0
2017-Nov-02 06:29N 44°06' E 028°40'0 0.0
2017-Nov-02 05:59N 44°06' E 028°40'0 0.0
2017-Nov-02 05:29N 44°06' E 028°40'0 0.0
2017-Nov-02 04:59N 44°06' E 028°40'0 0.0
2017-Nov-02 04:29N 44°06' E 028°40'0 0.0
2017-Nov-02 03:59N 44°06' E 028°40'0 0.0
2017-Nov-02 03:29N 44°06' E 028°40'0 0.0
2017-Nov-02 02:59N 44°06' E 028°40'0 0.0
2017-Nov-02 02:29N 44°06' E 028°40'0 0.0
2017-Nov-02 01:58N 44°06' E 028°40'  
Track history (hours):
 
Tides and Currents Weather Stations Pressure Air Temp Water Temp Dewpoint Dewpoint Depression Visibility Wind Speed Wind Dir Waves Ship Positions

Osman Prince

Last reported at 2017-Nov-12 01:58 UTC. Time now 2017-Nov-24 09:25 UTC.
Position N 44°12' E 030°17'.
Warning: this ship's position is 12 days out of date.

Length 151 m; draft 9 m.

MMSI: 620040000.

Date/timePositionNaut miles runAvg speedWind from/ knotsBaromVisibWave heightAir tempDewpointWater temp
2017-Nov-12 01:58N 44°12' E 030°17'810.2
2017-Nov-12 01:13N 44°19' E 030°20'122 9.5
2017-Nov-11 12:16N 46°19' E 030°55'3 9.6
2017-Nov-11 11:57N 46°22' E 030°55'4 9.6
2017-Nov-11 11:30N 46°27' E 030°55'5 9.6
2017-Nov-11 11:00N 46°31' E 030°55'2110.1
2017-Nov-11 08:53N 46°35' E 031°26'4 8.4
2017-Nov-11 08:22N 46°35' E 031°32'4 9.4
2017-Nov-11 07:57N 46°35' E 031°38'5 9.5
2017-Nov-11 07:28N 46°36' E 031°44'4 9.2
2017-Nov-11 07:00N 46°37' E 031°50'4 8.0
2017-Nov-11 06:30N 46°39' E 031°55'4 7.5
2017-Nov-11 06:01N 46°42' E 031°56'4 8.2
2017-Nov-11 05:30N 46°46' E 031°53'4 8.7
2017-Nov-11 05:00N 46°50' E 031°56'1 1.6
2017-Nov-11 04:30N 46°50' E 031°57'0 0.0
2017-Nov-11 04:00N 46°50' E 031°57'0 0.0
2017-Nov-11 03:28N 46°50' E 031°57'0 0.0
2017-Nov-11 02:58N 46°50' E 031°57'0 0.0
2017-Nov-11 02:28N 46°50' E 031°57'0 0.0
2017-Nov-11 01:58N 46°50' E 031°57'0 0.0
2017-Nov-11 01:28N 46°50' E 031°57'0 0.0
2017-Nov-11 00:58N 46°50' E 031°57'0 0.0
2017-Nov-11 00:28N 46°50' E 031°57'0 0.0
2017-Nov-10 23:58N 46°50' E 031°57'0 0.0
2017-Nov-10 23:28N 46°50' E 031°57'0 0.0
2017-Nov-10 22:58N 46°50' E 031°57'0 0.0
2017-Nov-10 22:28N 46°50' E 031°57'0 0.0
2017-Nov-10 21:58N 46°50' E 031°57'0 0.0
2017-Nov-10 21:28N 46°50' E 031°57'0 0.0
2017-Nov-10 20:58N 46°50' E 031°57'0 0.0
2017-Nov-10 20:28N 46°50' E 031°57'0 0.0
2017-Nov-10 19:58N 46°50' E 031°57'0 0.0
2017-Nov-10 19:28N 46°50' E 031°57'0 0.0
2017-Nov-10 18:58N 46°50' E 031°57'0 0.0
2017-Nov-10 18:28N 46°50' E 031°57'0 0.0
2017-Nov-10 17:58N 46°50' E 031°57'0 0.0
2017-Nov-10 17:28N 46°50' E 031°57'0 0.0
2017-Nov-10 16:58N 46°50' E 031°57'0 0.0
2017-Nov-10 16:28N 46°50' E 031°57'0 0.0
2017-Nov-10 15:58N 46°50' E 031°57'0 0.0
2017-Nov-10 15:28N 46°50' E 031°57'0 0.0
2017-Nov-10 14:58N 46°50' E 031°57'0 0.0
2017-Nov-10 14:31N 46°50' E 031°57'0 0.0
2017-Nov-10 14:01N 46°50' E 031°57'0 0.0
2017-Nov-10 13:31N 46°50' E 031°57'0 0.0
2017-Nov-10 13:00N 46°50' E 031°57'0 0.0
2017-Nov-10 12:30N 46°50' E 031°57'0 0.0
2017-Nov-10 12:00N 46°50' E 031°57'0 0.0
2017-Nov-10 11:30N 46°50' E 031°57'0 0.0
2017-Nov-10 11:00N 46°50' E 031°57'0 0.0
2017-Nov-10 10:24N 46°50' E 031°57'0 0.0
2017-Nov-10 10:00N 46°50' E 031°57'0 0.0
2017-Nov-10 09:30N 46°50' E 031°57'0 0.0
2017-Nov-10 09:00N 46°50' E 031°57'0 0.0
2017-Nov-10 08:30N 46°50' E 031°57'0 0.0
2017-Nov-10 08:00N 46°50' E 031°57'0 0.0
2017-Nov-10 07:30N 46°50' E 031°57'0 0.0
2017-Nov-10 07:00N 46°50' E 031°57'0 0.0
2017-Nov-10 06:30N 46°50' E 031°57'0 0.0
2017-Nov-10 06:00N 46°50' E 031°57'0 0.0
2017-Nov-10 05:30N 46°50' E 031°57'0 0.0
2017-Nov-10 05:00N 46°50' E 031°57'0 0.0
2017-Nov-10 04:30N 46°50' E 031°57'0 0.0
2017-Nov-10 04:00N 46°50' E 031°57'0 0.0
2017-Nov-10 03:30N 46°50' E 031°57'0 0.0
2017-Nov-10 03:00N 46°50' E 031°57'0 0.0
2017-Nov-10 02:30N 46°50' E 031°57'0 0.0
2017-Nov-10 02:00N 46°50' E 031°57'0 0.0
2017-Nov-10 01:30N 46°50' E 031°57'0 0.0
2017-Nov-10 01:00N 46°50' E 031°57'0 0.0
2017-Nov-10 00:30N 46°50' E 031°57'0 0.0
2017-Nov-10 00:00N 46°50' E 031°57'0 0.0
2017-Nov-09 23:30N 46°50' E 031°57'0 0.0
2017-Nov-09 23:00N 46°50' E 031°57'0 0.0
2017-Nov-09 22:30N 46°50' E 031°57'0 0.0
2017-Nov-09 22:00N 46°50' E 031°57'0 0.0
2017-Nov-09 21:30N 46°50' E 031°57'0 0.0
2017-Nov-09 21:00N 46°50' E 031°57'0 0.0
2017-Nov-09 20:30N 46°50' E 031°57'0 0.0
2017-Nov-09 19:57N 46°50' E 031°57'0 0.0
2017-Nov-09 19:27N 46°50' E 031°57'0 0.0
2017-Nov-09 18:57N 46°50' E 031°57'0 0.0
2017-Nov-09 18:27N 46°50' E 031°57'0 0.0
2017-Nov-09 17:57N 46°50' E 031°57'0 0.0
2017-Nov-09 17:30N 46°50' E 031°57'0 0.0
2017-Nov-09 17:00N 46°50' E 031°57'0 0.0
2017-Nov-09 16:30N 46°50' E 031°57'0 0.0
2017-Nov-09 16:00N 46°50' E 031°57'0 0.0
2017-Nov-09 15:30N 46°50' E 031°57'0 0.0
2017-Nov-09 15:00N 46°50' E 031°57'0 0.0
2017-Nov-09 14:30N 46°50' E 031°57'0 0.0
2017-Nov-09 13:57N 46°50' E 031°57'0 0.0
2017-Nov-09 13:30N 46°50' E 031°57'0 0.0
2017-Nov-09 13:00N 46°50' E 031°57'0 0.0
2017-Nov-09 12:30N 46°50' E 031°57'0 0.0
2017-Nov-09 12:00N 46°50' E 031°57'0 0.0
2017-Nov-09 11:30N 46°50' E 031°57'0 0.0
2017-Nov-09 11:00N 46°50' E 031°57'0 0.0
2017-Nov-09 10:30N 46°50' E 031°57'0 0.0
2017-Nov-09 10:00N 46°50' E 031°57'0 0.0
2017-Nov-09 09:30N 46°50' E 031°57'0 0.0
2017-Nov-09 09:00N 46°50' E 031°57'0 0.0
2017-Nov-09 08:30N 46°50' E 031°57'0 0.0
2017-Nov-09 08:00N 46°50' E 031°57'0 0.0
2017-Nov-09 07:30N 46°50' E 031°57'0 0.0
2017-Nov-09 07:00N 46°50' E 031°57'0 0.0
2017-Nov-09 06:30N 46°50' E 031°57'0 0.0
2017-Nov-09 06:00N 46°50' E 031°57'0 0.0
2017-Nov-09 05:30N 46°50' E 031°57'0 0.0
2017-Nov-09 05:00N 46°50' E 031°57'0 0.0
2017-Nov-09 04:30N 46°50' E 031°57'0 0.0
2017-Nov-09 04:00N 46°50' E 031°57'0 0.0
2017-Nov-09 03:30N 46°50' E 031°57'0 0.0
2017-Nov-09 03:00N 46°50' E 031°57'0 0.0
2017-Nov-09 02:30N 46°50' E 031°57'0 0.0
2017-Nov-09 02:00N 46°50' E 031°57'0 0.0
2017-Nov-09 01:30N 46°50' E 031°57'0 0.0
2017-Nov-09 00:59N 46°50' E 031°57'0 0.0
2017-Nov-09 00:29N 46°50' E 031°57'0 0.0
2017-Nov-08 23:59N 46°50' E 031°57'0 0.0
2017-Nov-08 23:29N 46°50' E 031°57'0 0.0
2017-Nov-08 22:59N 46°50' E 031°57'0 0.0
2017-Nov-08 22:29N 46°50' E 031°57'0 0.0
2017-Nov-08 21:59N 46°50' E 031°57'0 0.0
2017-Nov-08 21:29N 46°50' E 031°57'0 0.0
2017-Nov-08 20:59N 46°50' E 031°57'0 0.0
2017-Nov-08 20:29N 46°50' E 031°57'0 0.0
2017-Nov-08 19:59N 46°50' E 031°57'0 0.0
2017-Nov-08 19:29N 46°50' E 031°57'0 0.0
2017-Nov-08 18:59N 46°50' E 031°57'0 0.0
2017-Nov-08 18:29N 46°50' E 031°57'0 0.0
2017-Nov-08 17:59N 46°50' E 031°57'0 0.0
2017-Nov-08 17:29N 46°50' E 031°57'0 0.0
2017-Nov-08 16:59N 46°50' E 031°57'0 0.0
2017-Nov-08 16:29N 46°50' E 031°57'0 0.0
2017-Nov-08 15:59N 46°50' E 031°57'0 0.0
2017-Nov-08 15:29N 46°50' E 031°57'0 0.0
2017-Nov-08 14:59N 46°50' E 031°57'0 0.0
2017-Nov-08 14:29N 46°50' E 031°57'0 0.0
2017-Nov-08 13:59N 46°50' E 031°57'0 0.0
2017-Nov-08 13:29N 46°50' E 031°57'0 0.0
2017-Nov-08 12:59N 46°50' E 031°57'0 0.0
2017-Nov-08 12:29N 46°50' E 031°57'0 0.0
2017-Nov-08 11:59N 46°50' E 031°57'0 0.0
2017-Nov-08 11:29N 46°50' E 031°57'0 0.0
2017-Nov-08 10:59N 46°50' E 031°57'0 0.0
2017-Nov-08 10:29N 46°50' E 031°57'0 0.0
2017-Nov-08 09:59N 46°50' E 031°57'0 0.0
2017-Nov-08 09:29N 46°50' E 031°57'0 0.0
2017-Nov-08 08:56N 46°50' E 031°57'0 0.0
2017-Nov-08 08:29N 46°50' E 031°57'0 0.0
2017-Nov-08 07:59N 46°50' E 031°57'0 0.0
2017-Nov-08 07:29N 46°50' E 031°57'0 0.0
2017-Nov-08 06:59N 46°50' E 031°57'0 0.0
2017-Nov-08 06:29N 46°50' E 031°57'0 0.0
2017-Nov-08 05:59N 46°50' E 031°57'0 0.0
2017-Nov-08 05:29N 46°50' E 031°57'0 0.0
2017-Nov-08 04:59N 46°50' E 031°57'0 0.0
2017-Nov-08 04:29N 46°50' E 031°57'0 0.0
2017-Nov-08 03:59N 46°50' E 031°57'0 0.0
2017-Nov-08 03:29N 46°50' E 031°57'0 0.0
2017-Nov-08 02:59N 46°50' E 031°57'0 0.0
2017-Nov-08 02:29N 46°50' E 031°57'0 0.0
2017-Nov-08 01:59N 46°50' E 031°57'0 0.0
2017-Nov-08 01:29N 46°50' E 031°57'0 0.0
2017-Nov-08 00:59N 46°50' E 031°57'0 0.0
2017-Nov-08 00:29N 46°50' E 031°57'0 0.0
2017-Nov-07 23:59N 46°50' E 031°57'0 0.0
2017-Nov-07 23:29N 46°50' E 031°57'0 0.0
2017-Nov-07 22:59N 46°50' E 031°57'0 0.0
2017-Nov-07 22:29N 46°50' E 031°57'0 0.0
2017-Nov-07 21:59N 46°50' E 031°57'0 0.0
2017-Nov-07 21:29N 46°50' E 031°57'0 0.0
2017-Nov-07 20:59N 46°50' E 031°57'0 0.0
2017-Nov-07 20:29N 46°50' E 031°57'0 0.0
2017-Nov-07 19:59N 46°50' E 031°57'0 0.0
2017-Nov-07 19:29N 46°50' E 031°57'0 0.0
2017-Nov-07 18:59N 46°50' E 031°57'0 0.0
2017-Nov-07 18:29N 46°50' E 031°57'0 0.0
2017-Nov-07 17:59N 46°50' E 031°57'0 0.0
2017-Nov-07 17:29N 46°50' E 031°57'0 0.0
2017-Nov-07 16:56N 46°50' E 031°57'0 0.0
2017-Nov-07 16:29N 46°50' E 031°57'0 0.0
2017-Nov-07 15:59N 46°50' E 031°57'0 0.0
2017-Nov-07 15:23N 46°50' E 031°57'0 0.0
2017-Nov-07 14:59N 46°50' E 031°57'0 0.0
2017-Nov-07 14:29N 46°50' E 031°57'0 0.0
2017-Nov-07 13:59N 46°50' E 031°57'0 0.0
2017-Nov-07 13:29N 46°50' E 031°57'0 0.0
2017-Nov-07 12:59N 46°50' E 031°57'0 0.0
2017-Nov-07 12:28N 46°50' E 031°57'0 0.0
2017-Nov-07 11:58N 46°50' E 031°57'0 0.0
2017-Nov-07 11:22N 46°50' E 031°57'0 0.0
2017-Nov-07 10:58N 46°50' E 031°57'0 0.0
2017-Nov-07 10:28N 46°50' E 031°57'0 0.0
2017-Nov-07 09:58N 46°50' E 031°57'0 0.0
2017-Nov-07 09:28N 46°50' E 031°57'0 0.0
2017-Nov-07 08:58N 46°50' E 031°57'0 0.0
2017-Nov-07 08:28N 46°50' E 031°57'0 0.0
2017-Nov-07 07:58N 46°50' E 031°57'0 0.0
2017-Nov-07 07:28N 46°50' E 031°57'0 0.0
2017-Nov-07 06:58N 46°50' E 031°57'0 0.0
2017-Nov-07 06:28N 46°50' E 031°57'0 0.0
2017-Nov-07 05:58N 46°50' E 031°57'0 0.0
2017-Nov-07 05:28N 46°50' E 031°57'0 0.0
2017-Nov-07 04:58N 46°50' E 031°57'0 0.0
2017-Nov-07 04:28N 46°50' E 031°57'0 0.0
2017-Nov-07 03:58N 46°50' E 031°57'0 0.0
2017-Nov-07 03:28N 46°50' E 031°57'0 0.0
2017-Nov-07 02:58N 46°50' E 031°57'0 0.0
2017-Nov-07 02:28N 46°50' E 031°57'0 0.0
2017-Nov-07 01:58N 46°50' E 031°57'0 0.0
2017-Nov-07 01:28N 46°50' E 031°57'0 0.0
2017-Nov-07 00:58N 46°50' E 031°57'0 0.0
2017-Nov-07 00:28N 46°50' E 031°57'0 0.0
2017-Nov-06 23:58N 46°50' E 031°57'0 0.0
2017-Nov-06 23:28N 46°50' E 031°57'0 0.0
2017-Nov-06 22:58N 46°50' E 031°57'0 0.0
2017-Nov-06 22:28N 46°50' E 031°57'0 0.0
2017-Nov-06 21:58N 46°50' E 031°57'0 0.0
2017-Nov-06 21:28N 46°50' E 031°57'0 0.0
2017-Nov-06 20:58N 46°50' E 031°57'0 0.0
2017-Nov-06 20:28N 46°50' E 031°57'0 0.0
2017-Nov-06 02:28N 46°50' E 031°57'0 0.0
2017-Nov-06 02:01N 46°50' E 031°57'0 0.0
2017-Nov-06 01:31N 46°50' E 031°57'0 0.0
2017-Nov-06 01:01N 46°50' E 031°57'0 0.0
2017-Nov-06 00:30N 46°50' E 031°57'0 0.0
2017-Nov-06 00:00N 46°50' E 031°57'0 0.0
2017-Nov-05 23:30N 46°50' E 031°57'0 0.0
2017-Nov-05 23:00N 46°50' E 031°57'0 0.3
2017-Nov-05 22:30N 46°50' E 031°57'1 2.5
2017-Nov-05 22:00N 46°50' E 031°55'0 0.0
2017-Nov-05 21:30N 46°50' E 031°55'0 0.0
2017-Nov-05 21:00N 46°50' E 031°55'0 0.0
2017-Nov-05 20:30N 46°50' E 031°55'0 0.1
2017-Nov-05 20:00N 46°50' E 031°55'3 5.3
2017-Nov-05 19:30N 46°48' E 031°53'5 9.6
2017-Nov-05 19:00N 46°43' E 031°56'510.5
2017-Nov-05 18:30N 46°38' E 031°54'510.5
2017-Nov-05 18:00N 46°36' E 031°48'35 6.7
2017-Nov-05 12:49N 46°32' E 030°57'3 9.7
2017-Nov-05 12:29N 46°29' E 030°57'510.7
2017-Nov-05 11:59N 46°23' E 030°57'13310.2
2017-Nov-04 23:00N 44°24' E 029°34'611.1
2017-Nov-04 22:30N 44°21' E 029°27'511.2
2017-Nov-04 22:01N 44°19' E 029°20'611.2
2017-Nov-04 21:31N 44°17' E 029°13'611.2
2017-Nov-04 21:01N 44°15' E 029°06'611.1
2017-Nov-04 20:31N 44°12' E 028°59'611.1
2017-Nov-04 20:01N 44°10' E 028°52'5 9.4
2017-Nov-04 19:31N 44°08' E 028°46'0 0.3
2017-Nov-04 19:00N 44°08' E 028°46'0 0.1
2017-Nov-04 18:30N 44°08' E 028°46'0 0.0
2017-Nov-04 18:00N 44°08' E 028°46'0 0.9
2017-Nov-04 17:30N 44°07' E 028°46'3 5.2
2017-Nov-04 17:00N 44°05' E 028°43'2 4.4
2017-Nov-04 16:30N 44°06' E 028°40'0 0.4
2017-Nov-04 16:00N 44°06' E 028°40'0 0.0
2017-Nov-04 15:30N 44°06' E 028°40'0 0.0
2017-Nov-04 15:00N 44°06' E 028°40'0 0.0
2017-Nov-04 14:30N 44°06' E 028°40'0 0.0
2017-Nov-04 14:00N 44°06' E 028°40'0 0.0
2017-Nov-04 13:30N 44°06' E 028°40'0 0.0
2017-Nov-04 12:57N 44°06' E 028°40'0 0.0
2017-Nov-04 12:30N 44°06' E 028°40'0 0.0
2017-Nov-04 12:00N 44°06' E 028°40'0 0.0
2017-Nov-04 11:30N 44°06' E 028°40'0 0.0
2017-Nov-04 11:00N 44°06' E 028°40'0 0.0
2017-Nov-04 10:30N 44°06' E 028°40'0 0.0
2017-Nov-04 10:00N 44°06' E 028°40'0 0.0
2017-Nov-04 09:30N 44°06' E 028°40'0 0.0
2017-Nov-04 09:00N 44°06' E 028°40'0 0.0
2017-Nov-04 08:30N 44°06' E 028°40'0 0.0
2017-Nov-04 08:00N 44°06' E 028°40'0 0.0
2017-Nov-04 07:30N 44°06' E 028°40'0 0.0
2017-Nov-04 07:00N 44°06' E 028°40'0 0.0
2017-Nov-04 06:30N 44°06' E 028°40'0 0.0
2017-Nov-04 06:00N 44°06' E 028°40'0 0.0
2017-Nov-04 05:30N 44°06' E 028°40'0 0.0
2017-Nov-04 05:00N 44°06' E 028°40'0 0.0
2017-Nov-04 04:30N 44°06' E 028°40'0 0.0
2017-Nov-04 04:00N 44°06' E 028°40'0 0.0
2017-Nov-04 03:30N 44°06' E 028°40'0 0.0
2017-Nov-04 03:00N 44°06' E 028°40'0 0.0
2017-Nov-04 02:30N 44°06' E 028°40'0 0.0
2017-Nov-04 02:00N 44°06' E 028°40'0 0.0
2017-Nov-04 01:30N 44°06' E 028°40'0 0.0
2017-Nov-04 01:00N 44°06' E 028°40'0 0.0
2017-Nov-04 00:30N 44°06' E 028°40'0 0.0
2017-Nov-04 00:00N 44°06' E 028°40'0 0.0
2017-Nov-03 23:30N 44°06' E 028°40'0 0.0
2017-Nov-03 23:00N 44°06' E 028°40'0 0.0
2017-Nov-03 22:30N 44°06' E 028°40'0 0.0
2017-Nov-03 22:00N 44°06' E 028°40'0 0.0
2017-Nov-03 21:30N 44°06' E 028°40'0 0.0
2017-Nov-03 21:00N 44°06' E 028°40'0 0.0
2017-Nov-03 20:30N 44°06' E 028°40'0 0.0
2017-Nov-03 20:00N 44°06' E 028°40'0 0.0
2017-Nov-03 19:30N 44°06' E 028°40'0 0.0
2017-Nov-03 19:00N 44°06' E 028°40'0 0.0
2017-Nov-03 18:30N 44°06' E 028°40'0 0.0
2017-Nov-03 18:00N 44°06' E 028°40'0 0.0
2017-Nov-03 17:30N 44°06' E 028°40'0 0.0
2017-Nov-03 17:00N 44°06' E 028°40'0 0.0
2017-Nov-03 16:30N 44°06' E 028°40'0 0.0
2017-Nov-03 16:00N 44°06' E 028°40'0 0.0
2017-Nov-03 15:30N 44°06' E 028°40'0 0.0
2017-Nov-03 15:00N 44°06' E 028°40'0 0.0
2017-Nov-03 14:30N 44°06' E 028°40'0 0.0
2017-Nov-03 14:00N 44°06' E 028°40'0 0.0
2017-Nov-03 13:29N 44°06' E 028°40'0 0.0
2017-Nov-03 12:59N 44°06' E 028°40'0 0.0
2017-Nov-03 12:29N 44°06' E 028°40'0 0.0
2017-Nov-03 11:59N 44°06' E 028°40'0 0.0
2017-Nov-03 11:29N 44°06' E 028°40'0 0.0
2017-Nov-03 10:59N 44°06' E 028°40'0 0.0
2017-Nov-03 10:29N 44°06' E 028°40'0 0.0
2017-Nov-03 09:59N 44°06' E 028°40'0 0.0
2017-Nov-03 09:29N 44°06' E 028°40'0 0.0
2017-Nov-03 08:59N 44°06' E 028°40'0 0.0
2017-Nov-03 08:29N 44°06' E 028°40'0 0.0
2017-Nov-03 07:53N 44°06' E 028°40'0 0.0
2017-Nov-03 07:29N 44°06' E 028°40'0 0.0
2017-Nov-03 06:59N 44°06' E 028°40'0 0.0
2017-Nov-03 06:29N 44°06' E 028°40'0 0.0
2017-Nov-03 05:59N 44°06' E 028°40'0 0.0
2017-Nov-03 05:29N 44°06' E 028°40'0 0.0
2017-Nov-03 04:59N 44°06' E 028°40'0 0.0
2017-Nov-03 04:29N 44°06' E 028°40'0 0.0
2017-Nov-03 03:56N 44°06' E 028°40'0 0.0
2017-Nov-03 03:29N 44°06' E 028°40'0 0.0
2017-Nov-03 02:59N 44°06' E 028°40'0 0.0
2017-Nov-03 02:29N 44°06' E 028°40'0 0.0
2017-Nov-03 01:59N 44°06' E 028°40'0 0.0
2017-Nov-03 01:29N 44°06' E 028°40'0 0.0
2017-Nov-03 00:59N 44°06' E 028°40'0 0.0
2017-Nov-03 00:26N 44°06' E 028°40'0 0.0
2017-Nov-02 23:59N 44°06' E 028°40'0 0.0
2017-Nov-02 23:29N 44°06' E 028°40'0 0.0
2017-Nov-02 22:59N 44°06' E 028°40'0 0.0
2017-Nov-02 22:29N 44°06' E 028°40'0 0.0
2017-Nov-02 21:59N 44°06' E 028°40'0 0.0
2017-Nov-02 21:29N 44°06' E 028°40'0 0.0
2017-Nov-02 20:59N 44°06' E 028°40'0 0.0
2017-Nov-02 20:29N 44°06' E 028°40'0 0.0
2017-Nov-02 19:59N 44°06' E 028°40'0 0.0
2017-Nov-02 19:29N 44°06' E 028°40'0 0.0
2017-Nov-02 18:59N 44°06' E 028°40'0 0.0
2017-Nov-02 18:29N 44°06' E 028°40'0 0.0
2017-Nov-02 17:59N 44°06' E 028°40'0 0.0
2017-Nov-02 17:29N 44°06' E 028°40'0 0.0
2017-Nov-02 16:59N 44°06' E 028°40'0 0.0
2017-Nov-02 16:29N 44°06' E 028°40'0 0.0
2017-Nov-02 15:59N 44°06' E 028°40'0 0.0
2017-Nov-02 15:29N 44°06' E 028°40'0 0.0
2017-Nov-02 14:59N 44°06' E 028°40'0 0.0
2017-Nov-02 14:29N 44°06' E 028°40'0 0.0
2017-Nov-02 13:59N 44°06' E 028°40'0 0.0
2017-Nov-02 13:29N 44°06' E 028°40'0 0.0
2017-Nov-02 12:59N 44°06' E 028°40'0 0.0
2017-Nov-02 12:29N 44°06' E 028°40'0 0.0
2017-Nov-02 11:59N 44°06' E 028°40'0 0.0
2017-Nov-02 11:29N 44°06' E 028°40'0 0.0
2017-Nov-02 10:59N 44°06' E 028°40'0 0.0
2017-Nov-02 10:29N 44°06' E 028°40'0 0.1
2017-Nov-02 09:59N 44°06' E 028°40'0 0.0
2017-Nov-02 09:29N 44°06' E 028°40'0 0.0
2017-Nov-02 08:59N 44°06' E 028°40'0 0.0
2017-Nov-02 08:29N 44°06' E 028°40'0 0.0
2017-Nov-02 07:59N 44°06' E 028°40'0 0.0
2017-Nov-02 07:29N 44°06' E 028°40'0 0.0
2017-Nov-02 06:59N 44°06' E 028°40'0 0.0
2017-Nov-02 06:29N 44°06' E 028°40'0 0.0
2017-Nov-02 05:59N 44°06' E 028°40'0 0.0
2017-Nov-02 05:29N 44°06' E 028°40'0 0.0
2017-Nov-02 04:59N 44°06' E 028°40'0 0.0
2017-Nov-02 04:29N 44°06' E 028°40'0 0.0
2017-Nov-02 03:59N 44°06' E 028°40'0 0.0
2017-Nov-02 03:29N 44°06' E 028°40'0 0.0
2017-Nov-02 02:59N 44°06' E 028°40'0 0.0
2017-Nov-02 02:29N 44°06' E 028°40'0 0.0
2017-Nov-02 01:58N 44°06' E 028°40'  

Dump ship's entire track history